createdAt,value
2022-12-04T00:01:36.101Z,97912.78
2022-12-04T00:04:05.291Z,97908.16
2022-12-04T00:06:34.593Z,97913.16
2022-12-04T00:09:04.409Z,97903.78
2022-12-04T00:11:34.236Z,97909.34
2022-12-04T00:14:07.199Z,97905.13
2022-12-04T00:16:36.978Z,97899.97
2022-12-04T00:19:06.122Z,97910.66
2022-12-04T00:21:35.194Z,97914.19
2022-12-04T00:24:04.274Z,97912.16
2022-12-04T00:26:33.302Z,97909.41
2022-12-04T00:29:02.297Z,97909.41
2022-12-04T00:31:32.226Z,97910.91
2022-12-04T00:34:02.249Z,97913.16
2022-12-04T00:36:31.331Z,97905.44
2022-12-04T00:39:01.517Z,97911.25
2022-12-04T00:41:32.580Z,97915.44
2022-12-04T00:44:03.239Z,97908.53
2022-12-04T00:46:32.192Z,97915.97
2022-12-04T00:49:03.199Z,97908.38
2022-12-04T00:51:32.173Z,97914.88
2022-12-04T00:54:01.023Z,97914.88
2022-12-04T00:56:30.607Z,97923.28
2022-12-04T00:59:01.939Z,97928.28
2022-12-04T01:01:32.378Z,97929.13
2022-12-04T01:04:01.496Z,97922.31
2022-12-04T01:06:34.900Z,97924.44
2022-12-04T01:09:06.695Z,97933.19
2022-12-04T01:11:35.720Z,97932.06
2022-12-04T01:14:04.703Z,97938.56
2022-12-04T01:16:38.624Z,97941.78
2022-12-04T01:19:10.397Z,97928.88
2022-12-04T01:21:40.041Z,97935.16
2022-12-04T01:24:09.636Z,97935.69
2022-12-04T01:26:38.599Z,97945.06
2022-12-04T01:29:07.668Z,97932.06
2022-12-04T01:31:37.071Z,97936.09
2022-12-04T01:34:06.152Z,97950.72
2022-12-04T01:36:34.982Z,97954.47
2022-12-04T01:39:04.054Z,97947.56
2022-12-04T01:41:33.547Z,97946.94
2022-12-04T01:44:17.520Z,97939.88
2022-12-04T01:46:51.017Z,97947.31
2022-12-04T01:49:31.074Z,97937.78
2022-12-04T01:52:22.255Z,97947.53
2022-12-04T01:54:57.741Z,97948.06
2022-12-04T01:57:31.864Z,97943.84
2022-12-04T02:00:09.577Z,97954.19
2022-12-04T02:02:41.916Z,97957.94
2022-12-04T02:05:15.914Z,97945.53
2022-12-04T02:07:47.907Z,97944.56
2022-12-04T02:10:17.863Z,97946.41
2022-12-04T02:12:51.736Z,97949.34
2022-12-04T02:15:46.901Z,97940.47
2022-12-04T02:19:08.650Z,97946.00
2022-12-04T02:21:41.400Z,97944.69
2022-12-04T02:24:26.228Z,97944.75
2022-12-04T02:27:03.609Z,97952.72
2022-12-04T02:29:53.582Z,97945.59
2022-12-04T02:32:44.555Z,97944.16
2022-12-04T02:35:28.712Z,97940.13
2022-12-04T02:38:25.330Z,97939.84
2022-12-04T02:41:02.865Z,97941.47
2022-12-04T02:43:36.820Z,97948.41
2022-12-04T02:46:17.530Z,97940.66
2022-12-04T02:48:50.289Z,97954.44
2022-12-04T02:51:24.291Z,97955.09
2022-12-04T02:54:01.584Z,97958.19
2022-12-04T02:56:35.413Z,97952.03
2022-12-04T02:59:27.933Z,97939.94
2022-12-04T03:02:02.599Z,97942.53
2022-12-04T03:04:32.571Z,97943.84
2022-12-04T03:07:17.811Z,97940.16
2022-12-04T03:09:52.289Z,97940.19
2022-12-04T03:12:47.887Z,97942.91
2022-12-04T03:15:25.192Z,97948.41
2022-12-04T03:18:02.397Z,97947.97
2022-12-04T03:20:34.592Z,97948.44
2022-12-04T03:23:30.369Z,97948.16
2022-12-04T03:26:22.238Z,97943.63
2022-12-04T03:29:08.479Z,97949.94
2022-12-04T03:31:57.157Z,97960.47
2022-12-04T03:34:33.590Z,97960.34
2022-12-04T03:37:14.280Z,97957.28
2022-12-04T03:40:21.024Z,97963.75
2022-12-04T03:43:01.580Z,97951.78
2022-12-04T03:45:49.399Z,97955.50
2022-12-04T03:48:42.496Z,97950.66
2022-12-04T03:51:17.860Z,97951.47
2022-12-04T03:53:51.233Z,97946.28
2022-12-04T03:56:25.503Z,97954.53
2022-12-04T03:58:59.592Z,97947.88
2022-12-04T04:01:36.942Z,97953.25
2022-12-04T04:04:11.107Z,97946.59
2022-12-04T04:06:58.117Z,97953.91
2022-12-04T04:09:31.668Z,97954.53
2022-12-04T04:12:07.494Z,97957.13
2022-12-04T04:14:54.862Z,97952.28
2022-12-04T04:17:52.230Z,97948.69
2022-12-04T04:20:45.688Z,97958.53
2022-12-04T04:23:37.118Z,97962.47
2022-12-04T04:26:07.982Z,97959.06
2022-12-04T04:28:39.997Z,97961.34
2022-12-04T04:31:26.955Z,97962.25
2022-12-04T04:34:14.887Z,97957.56
2022-12-04T04:37:07.587Z,97962.13
2022-12-04T04:39:39.837Z,97960.66
2022-12-04T04:42:20.691Z,97960.16
2022-12-04T04:45:19.635Z,97957.88
2022-12-04T04:48:12.462Z,97955.09
2022-12-04T04:50:42.709Z,97952.19
2022-12-04T04:53:18.432Z,97953.16
2022-12-04T04:55:47.811Z,97949.56
2022-12-04T04:58:19.596Z,97945.81
2022-12-04T05:01:00.523Z,97935.94
2022-12-04T05:03:30.803Z,97941.63
2022-12-04T05:05:59.909Z,97942.56
2022-12-04T05:08:28.793Z,97950.16
2022-12-04T05:10:57.661Z,97941.25
2022-12-04T05:13:29.905Z,97935.38
2022-12-04T05:16:05.111Z,97946.91
2022-12-04T05:18:35.771Z,97954.03
2022-12-04T05:21:19.249Z,97946.72
2022-12-04T05:23:48.131Z,97945.09
2022-12-04T05:26:17.057Z,97952.41
2022-12-04T05:28:46.016Z,97944.13
2022-12-04T05:31:14.894Z,97944.56
2022-12-04T05:33:43.772Z,97940.66
2022-12-04T05:36:13.972Z,97942.41
2022-12-04T05:38:42.877Z,97950.19
2022-12-04T05:41:11.772Z,97942.91
2022-12-04T05:43:40.660Z,97951.31
2022-12-04T05:46:11.336Z,97942.25
2022-12-04T05:48:40.398Z,97945.50
2022-12-04T05:51:11.200Z,97947.91
2022-12-04T05:53:40.130Z,97947.28
2022-12-04T05:56:09.513Z,97946.81
2022-12-04T05:58:39.371Z,97932.41
2022-12-04T06:01:14.305Z,97950.91
2022-12-04T06:03:43.535Z,97941.69
2022-12-04T06:06:21.900Z,97948.16
2022-12-04T06:08:53.724Z,97945.88
2022-12-04T06:11:29.884Z,97949.59
2022-12-04T06:14:01.149Z,97950.06
2022-12-04T06:16:32.701Z,97947.97
2022-12-04T06:19:05.482Z,97957.03
2022-12-04T06:21:36.928Z,97954.09
2022-12-04T06:24:06.724Z,97952.16
2022-12-04T06:26:35.895Z,97946.13
2022-12-04T06:29:05.154Z,97935.28
2022-12-04T06:31:36.732Z,97936.28
2022-12-04T06:34:06.526Z,97939.50
2022-12-04T06:36:36.221Z,97941.94
2022-12-04T06:39:05.744Z,97935.47
2022-12-04T06:41:34.686Z,97933.22
2022-12-04T06:44:03.510Z,97939.06
2022-12-04T06:46:34.410Z,97930.00
2022-12-04T06:49:03.960Z,97934.34
2022-12-04T06:51:36.203Z,97931.94
2022-12-04T06:54:05.846Z,97926.75
2022-12-04T06:56:35.608Z,97930.13
2022-12-04T06:59:05.384Z,97932.91
2022-12-04T07:01:36.040Z,97932.63
2022-12-04T07:04:05.311Z,97933.09
2022-12-04T07:06:38.030Z,97940.41
2022-12-04T07:09:12.854Z,97929.03
2022-12-04T07:11:43.140Z,97916.38
2022-12-04T07:14:14.005Z,97931.94
2022-12-04T07:16:43.688Z,97943.00
2022-12-04T07:19:14.725Z,97938.31
2022-12-04T07:21:44.284Z,97938.31
2022-12-04T07:24:17.781Z,97938.13
2022-12-04T07:26:47.248Z,97935.88
2022-12-04T07:29:16.111Z,97932.47
2022-12-04T07:31:45.078Z,97927.59
2022-12-04T07:34:14.290Z,97936.22
2022-12-04T07:36:43.199Z,97938.81
2022-12-04T07:39:12.057Z,97932.19
2022-12-04T07:41:41.135Z,97927.81
2022-12-04T07:44:10.601Z,97913.84
2022-12-04T07:46:39.512Z,97931.34
2022-12-04T07:49:08.485Z,97921.47
2022-12-04T07:51:37.397Z,97918.69
2022-12-04T07:54:06.572Z,97915.66
2022-12-04T07:56:35.712Z,97919.66
2022-12-04T07:59:04.919Z,97921.13
2022-12-04T08:01:34.303Z,97929.91
2022-12-04T08:04:05.132Z,97921.13
2022-12-04T08:06:35.916Z,97920.00
2022-12-04T08:09:10.237Z,97919.38
2022-12-04T08:11:39.863Z,97921.16
2022-12-04T08:14:11.545Z,97919.56
2022-12-04T08:16:40.524Z,97920.22
2022-12-04T08:19:09.528Z,97912.44
2022-12-04T08:21:38.697Z,97921.50
2022-12-04T08:24:07.881Z,97916.66
2022-12-04T08:26:36.989Z,97922.63
2022-12-04T08:29:07.267Z,97927.03
2022-12-04T08:31:37.679Z,97930.94
2022-12-04T08:34:08.311Z,97936.31
2022-12-04T08:36:37.304Z,97938.22
2022-12-04T08:39:06.739Z,97924.47
2022-12-04T08:41:35.733Z,97931.44
2022-12-04T08:44:04.749Z,97934.34
2022-12-04T08:46:34.500Z,97926.56
2022-12-04T08:49:05.016Z,97924.66
2022-12-04T08:51:37.539Z,97922.69
2022-12-04T08:54:10.428Z,97914.78
2022-12-04T08:56:39.503Z,97922.03
2022-12-04T08:59:08.741Z,97928.56
2022-12-04T09:01:38.829Z,97928.06
2022-12-04T09:04:07.878Z,97914.44
2022-12-04T09:06:37.111Z,97912.06
2022-12-04T09:09:06.187Z,97925.66
2022-12-04T09:11:35.139Z,97932.44
2022-12-04T09:14:04.587Z,97914.97
2022-12-04T09:16:33.798Z,97903.34
2022-12-04T09:19:02.898Z,97920.50
2022-12-04T09:21:32.078Z,97932.66
2022-12-04T09:24:01.127Z,97925.38
2022-12-04T09:26:32.522Z,97937.03
2022-12-04T09:29:03.385Z,97938.00
2022-12-04T09:31:33.476Z,97936.06
2022-12-04T09:34:03.189Z,97933.31
2022-12-04T09:36:32.569Z,97931.69
2022-12-04T09:39:01.515Z,97916.47
2022-12-04T09:41:52.234Z,97925.53
2022-12-04T09:44:40.428Z,97922.28
2022-12-04T09:47:41.006Z,97914.97
2022-12-04T09:50:21.712Z,97921.47
2022-12-04T09:53:02.087Z,97917.59
2022-12-04T09:56:01.552Z,97906.38
2022-12-04T09:58:42.043Z,97900.91
2022-12-04T10:01:25.366Z,97914.03
2022-12-04T10:04:00.001Z,97919.22
2022-12-04T10:06:44.522Z,97915.34
2022-12-04T10:09:20.358Z,97934.13
2022-12-04T10:12:10.642Z,97928.75
2022-12-04T10:15:20.248Z,97926.81
2022-12-04T10:18:27.424Z,97928.47
2022-12-04T10:21:47.417Z,97927.63
2022-12-04T10:24:40.833Z,97915.97
2022-12-04T10:27:28.540Z,97918.06
2022-12-04T10:30:21.873Z,97911.59
2022-12-04T10:33:11.243Z,97906.91
2022-12-04T10:35:44.521Z,97905.78
2022-12-04T10:38:39.032Z,97899.13
2022-12-04T10:41:32.296Z,97903.66
2022-12-04T10:44:01.674Z,97881.63
2022-12-04T10:46:36.633Z,97910.13
2022-12-04T10:49:14.972Z,97921.63
2022-12-04T10:51:45.227Z,97901.56
2022-12-04T10:54:33.366Z,97904.94
2022-12-04T10:57:14.552Z,97916.59
2022-12-04T10:59:55.774Z,97907.19
2022-12-04T11:02:35.293Z,97905.09
2022-12-04T11:05:08.328Z,97904.31
2022-12-04T11:07:47.665Z,97903.16
2022-12-04T11:10:34.780Z,97906.22
2022-12-04T11:13:10.235Z,97908.47
2022-12-04T11:15:48.160Z,97906.72
2022-12-04T11:18:29.995Z,97908.66
2022-12-04T11:21:06.798Z,97908.00
2022-12-04T11:23:46.247Z,97886.13
2022-12-04T11:26:38.548Z,97920.66
2022-12-04T11:29:14.330Z,97917.25
2022-12-04T11:31:49.544Z,97904.47
2022-12-04T11:34:22.053Z,97930.84
2022-12-04T11:36:55.596Z,97897.00
2022-12-04T11:39:43.018Z,97920.81
2022-12-04T11:42:15.627Z,97911.94
2022-12-04T11:45:00.140Z,97892.94
2022-12-04T11:47:34.905Z,97908.53
2022-12-04T11:50:38.910Z,97902.06
2022-12-04T11:53:13.755Z,97894.28
2022-12-04T11:55:45.710Z,97898.31
2022-12-04T11:58:48.848Z,97903.19
2022-12-04T12:02:03.760Z,97894.91
2022-12-04T12:04:41.956Z,97889.91
2022-12-04T12:07:20.133Z,97885.50
2022-12-04T12:10:20.459Z,97886.00
2022-12-04T12:13:14.400Z,97879.19
2022-12-04T12:15:57.564Z,97859.47
2022-12-04T12:18:47.629Z,97869.31
2022-12-04T12:21:28.228Z,97868.81
2022-12-04T12:24:22.283Z,97850.22
2022-12-04T12:27:16.675Z,97861.38
2022-12-04T12:30:07.673Z,97870.63
2022-12-04T12:33:00.867Z,97856.69
2022-12-04T12:36:09.235Z,97865.09
2022-12-04T12:39:01.137Z,97862.19
2022-12-04T12:41:40.770Z,97855.22
2022-12-04T12:44:18.779Z,97848.59
2022-12-04T12:47:01.194Z,97855.56
2022-12-04T12:49:56.581Z,97846.16
2022-12-04T12:52:33.478Z,97841.44
2022-12-04T12:55:16.958Z,97846.16
2022-12-04T12:57:53.618Z,97840.16
2022-12-04T13:00:25.325Z,97839.34
2022-12-04T13:03:44.025Z,97845.97
2022-12-04T13:06:21.639Z,97849.53
2022-12-04T13:09:12.741Z,97848.91
2022-12-04T13:11:43.864Z,97844.53
2022-12-04T13:14:15.127Z,97854.09
2022-12-04T13:16:50.158Z,97846.47
2022-12-04T13:19:27.581Z,97850.66
2022-12-04T13:22:14.582Z,97852.31
2022-12-04T13:25:20.340Z,97854.91
2022-12-04T13:28:16.491Z,97848.91
2022-12-04T13:31:02.467Z,97834.34
2022-12-04T13:33:52.617Z,97844.03
2022-12-04T13:36:47.068Z,97837.25
2022-12-04T13:39:22.524Z,97835.28
2022-12-04T13:42:00.732Z,97831.06
2022-12-04T13:44:32.444Z,97829.94
2022-12-04T13:47:13.274Z,97812.78
2022-12-04T13:49:46.522Z,97823.63
2022-12-04T13:52:41.210Z,97817.28
2022-12-04T13:55:36.544Z,97822.00
2022-12-04T13:58:14.314Z,97822.44
2022-12-04T14:00:44.918Z,97820.81
2022-12-04T14:03:33.697Z,97814.22
2022-12-04T14:06:20.806Z,97814.50
2022-12-04T14:08:55.404Z,97814.34
2022-12-04T14:11:25.473Z,97813.03
2022-12-04T14:13:57.505Z,97808.50
2022-12-04T14:16:41.388Z,97802.16
2022-12-04T14:19:28.810Z,97791.13
2022-12-04T14:21:57.859Z,97786.13
2022-12-04T14:24:31.512Z,97781.44
2022-12-04T14:27:15.845Z,97790.78
2022-12-04T14:29:53.798Z,97787.09
2022-12-04T14:32:36.196Z,97783.34
2022-12-04T14:35:05.802Z,97796.75
2022-12-04T14:37:41.664Z,97797.25
2022-12-04T14:40:26.295Z,97791.22
2022-12-04T14:42:55.984Z,97794.28
2022-12-04T14:45:50.811Z,97796.53
2022-12-04T14:48:33.769Z,97791.69
2022-12-04T14:51:34.011Z,97792.00
2022-12-04T14:54:27.785Z,97783.25
2022-12-04T14:57:01.847Z,97788.59
2022-12-04T14:59:52.131Z,97782.44
2022-12-04T15:02:28.688Z,97766.28
2022-12-04T15:04:58.545Z,97766.28
2022-12-04T15:07:32.196Z,97743.97
2022-12-04T15:10:22.517Z,97780.97
2022-12-04T15:12:54.181Z,97770.59
2022-12-04T15:15:29.562Z,97757.81
2022-12-04T15:18:12.348Z,97762.81
2022-12-04T15:20:50.000Z,97757.31
2022-12-04T15:23:18.750Z,97754.38
2022-12-04T15:25:51.460Z,97744.97
2022-12-04T15:28:32.260Z,97734.28
2022-12-04T15:31:04.210Z,97744.16
2022-12-04T15:33:39.474Z,97736.88
2022-12-04T15:36:16.032Z,97732.84
2022-12-04T15:38:55.326Z,97745.28
2022-12-04T15:41:35.226Z,97745.09
2022-12-04T15:44:25.427Z,97742.50
2022-12-04T15:46:56.817Z,97738.94
2022-12-04T15:49:28.673Z,97729.44
2022-12-04T15:52:11.617Z,97734.88
2022-12-04T15:54:44.977Z,97733.22
2022-12-04T15:57:20.247Z,97721.75
2022-12-04T15:59:52.922Z,97739.38
2022-12-04T16:02:34.161Z,97733.56
2022-12-04T16:05:36.162Z,97723.69
2022-12-04T16:08:23.612Z,97704.66
2022-12-04T16:11:00.179Z,97745.06
2022-12-04T16:13:35.064Z,97745.84
2022-12-04T16:16:12.869Z,97735.63
2022-12-04T16:18:43.743Z,97725.97
2022-12-04T16:21:19.306Z,97735.03
2022-12-04T16:23:48.716Z,97744.41
2022-12-04T16:26:19.598Z,97720.41
2022-12-04T16:28:48.568Z,97718.00
2022-12-04T16:31:20.304Z,97722.22
2022-12-04T16:33:49.211Z,97717.19
2022-12-04T16:36:18.385Z,97715.09
2022-12-04T16:38:47.495Z,97699.53
2022-12-04T16:41:18.558Z,97703.69
2022-12-04T16:43:55.839Z,97699.00
2022-12-04T16:46:26.317Z,97693.63
2022-12-04T16:48:55.608Z,97695.38
2022-12-04T16:51:26.660Z,97690.03
2022-12-04T16:53:56.032Z,97696.03
2022-12-04T16:56:25.082Z,97676.47
2022-12-04T16:58:54.018Z,97656.56
2022-12-04T17:01:27.313Z,97688.88
2022-12-04T17:03:56.666Z,97675.97
2022-12-04T17:06:25.542Z,97680.66
2022-12-04T17:08:54.402Z,97678.22
2022-12-04T17:11:23.310Z,97679.81
2022-12-04T17:13:52.185Z,97670.44
2022-12-04T17:16:21.467Z,97669.78
2022-12-04T17:18:50.331Z,97664.31
2022-12-04T17:21:19.270Z,97669.97
2022-12-04T17:23:48.103Z,97667.72
2022-12-04T17:26:17.007Z,97642.88
2022-12-04T17:28:45.888Z,97651.75
2022-12-04T17:31:26.567Z,97661.16
2022-12-04T17:33:57.593Z,97666.16
2022-12-04T17:36:28.242Z,97672.16
2022-12-04T17:38:59.647Z,97655.84
2022-12-04T17:41:29.142Z,97653.25
2022-12-04T17:44:01.355Z,97648.91
2022-12-04T17:46:30.434Z,97653.56
2022-12-04T17:49:03.908Z,97653.75
2022-12-04T17:51:36.875Z,97641.69
2022-12-04T17:54:06.569Z,97642.91
2022-12-04T17:56:35.358Z,97647.94
2022-12-04T17:59:05.347Z,97620.16
2022-12-04T18:01:34.993Z,97639.69
2022-12-04T18:04:06.908Z,97642.09
2022-12-04T18:06:41.728Z,97644.50
2022-12-04T18:09:13.373Z,97625.88
2022-12-04T18:11:44.277Z,97644.44
2022-12-04T18:14:18.224Z,97643.44
2022-12-04T18:16:53.466Z,97636.00
2022-12-04T18:19:25.377Z,97640.28
2022-12-04T18:21:55.293Z,97627.63
2022-12-04T18:24:25.262Z,97632.03
2022-12-04T18:26:54.219Z,97626.72
2022-12-04T18:29:26.110Z,97624.81
2022-12-04T18:31:55.952Z,97621.75
2022-12-04T18:34:25.040Z,97621.09
2022-12-04T18:36:53.979Z,97612.22
2022-12-04T18:39:25.052Z,97613.53
2022-12-04T18:41:57.153Z,97607.13
2022-12-04T18:44:26.704Z,97588.56
2022-12-04T18:46:55.551Z,97610.88
2022-12-04T18:49:24.587Z,97609.78
2022-12-04T18:51:53.409Z,97612.72
2022-12-04T18:54:24.104Z,97608.84
2022-12-04T18:56:53.467Z,97597.69
2022-12-04T18:59:27.398Z,97613.88
2022-12-04T19:01:57.189Z,97593.19
2022-12-04T19:04:26.695Z,97589.81
2022-12-04T19:06:56.892Z,97589.34
2022-12-04T19:09:54.294Z,97609.09
2022-12-04T19:12:18.140Z,97592.16
2022-12-04T19:14:46.977Z,97597.34
2022-12-04T19:17:16.471Z,97595.34
2022-12-04T19:19:45.331Z,97584.22
2022-12-04T19:22:14.438Z,97582.59
2022-12-04T19:24:43.290Z,97581.63
2022-12-04T19:27:12.667Z,97570.97
2022-12-04T19:29:43.620Z,97570.97
2022-12-04T19:32:12.941Z,97568.22
2022-12-04T19:34:41.896Z,97578.25
2022-12-04T19:37:10.765Z,97568.38
2022-12-04T19:39:39.822Z,97567.06
2022-12-04T19:42:09.045Z,97565.44
2022-12-04T19:44:53.535Z,97551.06
2022-12-04T19:47:22.439Z,97554.72
2022-12-04T19:49:51.284Z,97556.13
2022-12-04T19:52:20.166Z,97545.44
2022-12-04T19:54:49.224Z,97536.34
2022-12-04T19:57:18.106Z,97537.81
2022-12-04T19:59:47.150Z,97540.97
2022-12-04T20:02:17.020Z,97538.91
2022-12-04T20:04:47.882Z,97537.91
2022-12-04T20:07:16.705Z,97536.28
2022-12-04T20:09:52.061Z,97530.75
2022-12-04T20:12:21.612Z,97522.78
2022-12-04T20:14:50.415Z,97522.47
2022-12-04T20:17:19.252Z,97507.06
2022-12-04T20:19:48.043Z,97518.56
2022-12-04T20:22:16.868Z,97517.63
2022-12-04T20:24:45.757Z,97495.00
2022-12-04T20:27:14.773Z,97502.13
2022-12-04T20:29:43.702Z,97492.72
2022-12-04T20:32:12.581Z,97502.25
2022-12-04T20:34:43.764Z,97503.50
2022-12-04T20:37:13.135Z,97500.13
2022-12-04T20:39:42.306Z,97506.59
2022-12-04T20:42:11.301Z,97504.78
2022-12-04T20:44:40.143Z,97493.31
2022-12-04T20:47:08.918Z,97471.84
2022-12-04T20:49:37.767Z,97487.97
2022-12-04T20:52:06.601Z,97490.69
2022-12-04T20:54:41.069Z,97468.22
2022-12-04T20:57:11.129Z,97470.59
2022-12-04T20:59:40.396Z,97458.63
2022-12-04T21:02:12.425Z,97466.34
2022-12-04T21:04:41.996Z,97456.16
2022-12-04T21:07:10.794Z,97447.56
2022-12-04T21:09:40.091Z,97431.88
2022-12-04T21:12:29.188Z,97425.56
2022-12-04T21:15:16.711Z,97406.16
2022-12-04T21:18:05.649Z,97412.41
2022-12-04T21:20:34.733Z,97425.97
2022-12-04T21:23:03.610Z,97420.31
2022-12-04T21:25:32.472Z,97413.97
2022-12-04T21:28:01.503Z,97421.41
2022-12-04T21:30:30.290Z,97405.41
2022-12-04T21:32:59.170Z,97418.47
2022-12-04T21:35:29.498Z,97401.00
2022-12-04T21:37:58.420Z,97408.59
2022-12-04T21:40:27.283Z,97420.69
2022-12-04T21:42:56.114Z,97421.50
2022-12-04T21:45:24.939Z,97416.50
2022-12-04T21:47:53.855Z,97416.50
2022-12-04T21:50:22.854Z,97416.97
2022-12-04T21:52:54.673Z,97412.56
2022-12-04T21:55:23.569Z,97403.72
2022-12-04T21:57:52.548Z,97395.31
2022-12-04T22:00:22.294Z,97389.78
2022-12-04T22:02:51.483Z,97395.25
2022-12-04T22:05:20.441Z,97364.28
2022-12-04T22:07:49.341Z,97379.06
2022-12-04T22:10:19.101Z,97363.06
2022-12-04T22:12:50.368Z,97377.91
2022-12-04T22:15:20.128Z,97371.56
2022-12-04T22:17:48.950Z,97361.19
2022-12-04T22:20:18.431Z,97374.25
2022-12-04T22:22:47.318Z,97379.16
2022-12-04T22:25:16.169Z,97358.22
2022-12-04T22:27:45.039Z,97355.63
2022-12-04T22:30:14.418Z,97359.50
2022-12-04T22:32:43.296Z,97364.69
2022-12-04T22:35:12.124Z,97342.59
2022-12-04T22:37:44.356Z,97346.72
2022-12-04T22:40:15.414Z,97345.66
2022-12-04T22:42:44.658Z,97345.72
2022-12-04T22:45:13.611Z,97344.03
2022-12-04T22:47:42.682Z,97341.44
2022-12-04T22:50:12.839Z,97323.94
2022-12-04T22:52:41.752Z,97307.91
2022-12-04T22:55:10.581Z,97301.94
2022-12-04T22:57:39.441Z,97316.47
2022-12-04T23:00:10.149Z,97306.56
2022-12-04T23:02:39.272Z,97300.22
2022-12-04T23:05:08.536Z,97299.53
2022-12-04T23:07:38.055Z,97302.38
2022-12-04T23:10:07.823Z,97291.19
2022-12-04T23:12:36.798Z,97301.94
2022-12-04T23:15:06.096Z,97299.84
2022-12-04T23:17:35.598Z,97285.72
2022-12-04T23:20:04.878Z,97276.00
2022-12-04T23:22:33.957Z,97272.25
2022-12-04T23:25:02.996Z,97272.25
2022-12-04T23:27:33.118Z,97285.97
2022-12-04T23:30:01.915Z,97282.94
2022-12-04T23:32:32.468Z,97289.16
2022-12-04T23:35:01.357Z,97278.78
2022-12-04T23:37:30.382Z,97272.81
2022-12-04T23:39:59.499Z,97269.66
2022-12-04T23:42:32.731Z,97261.19
2022-12-04T23:45:01.622Z,97255.63
2022-12-04T23:47:32.236Z,97248.56
2022-12-04T23:50:01.267Z,97261.97
2022-12-04T23:52:30.398Z,97249.81
2022-12-04T23:54:59.401Z,97265.81
2022-12-04T23:57:30.798Z,97247.66
2022-12-04T23:59:59.879Z,97263.06
